Home > Products > Valid Products > TAF

000
FTUS43 KARX 301727
TAFLSE
TAF
KLSE 301727Z 3018/3118 31009KT P6SM BKN030
     FM302100 35006KT P6SM VCSH BKN035
     FM310200 VRB03KT P6SM BKN030
     FM310800 12003KT 4SM BR SKC
     FM310915 13003KT 1/2SM FG VV002
     FM311400 14005KT 4SM BR BKN006
     FM311500 16009KT P6SM SCT080=



000
FTUS43 KARX 301727
TAFRST
TAF
KRST 301727Z 3018/3118 31011KT P6SM BKN025
     FM302000 32008KT P6SM VCSH BKN035
     FM310100 VRB04KT P6SM BKN028
     FM310800 18004KT 5SM BR SKC
      TEMPO 3110/3113 2SM BR SCT002
     FM311430 17012KT P6SM SCT080=



000
FTUS43 KARX 301727
TAFLSE
TAF
KLSE 301727Z 3018/3118 31009KT P6SM BKN030
     FM302100 35006KT P6SM VCSH BKN035
     FM310200 VRB03KT P6SM BKN030
     FM310800 12003KT 4SM BR SKC
     FM310915 13003KT 1/2SM FG VV002
     FM311400 14005KT 4SM BR BKN006
     FM311500 16009KT P6SM SCT080=



000
FTUS43 KARX 301727
TAFRST
TAF
KRST 301727Z 3018/3118 31011KT P6SM BKN025
     FM302000 32008KT P6SM VCSH BKN035
     FM310100 VRB04KT P6SM BKN028
     FM310800 18004KT 5SM BR SKC
      TEMPO 3110/3113 2SM BR SCT002
     FM311430 17012KT P6SM SCT080=



000
FTUS43 KARX 301121
TAFRST
TAF
KRST 301121Z 3012/3112 30008KT P6SM VCSH BKN005
     FM301500 32008KT P6SM SCT008 BKN012
     FM301700 32008KT P6SM BKN015
     FM301900 32007KT P6SM BKN030
     FM310200 VRB04KT P6SM SCT030
     FM310600 21004KT 5SM BR SKC
      TEMPO 3108/3112 3SM BR SCT002=



000
FTUS43 KARX 301121
TAFLSE
TAF
KLSE 301121Z 3012/3112 VRB04KT P6SM -SHRA SCT005 BKN015
      TEMPO 3012/3014 3SM -SHRA BR BKN005
     FM301600 31007KT P6SM BKN020
     FM302000 31007KT P6SM BKN030
     FM310300 VRB04KT P6SM SCT035
     FM310800 15004KT 3SM BR SCT003=



000
FTUS43 KARX 301121
TAFRST
TAF
KRST 301121Z 3012/3112 30008KT P6SM VCSH BKN005
     FM301500 32008KT P6SM SCT008 BKN012
     FM301700 32008KT P6SM BKN015
     FM301900 32007KT P6SM BKN030
     FM310200 VRB04KT P6SM SCT030
     FM310600 21004KT 5SM BR SKC
      TEMPO 3108/3112 3SM BR SCT002=



000
FTUS43 KARX 301121
TAFLSE
TAF
KLSE 301121Z 3012/3112 VRB04KT P6SM -SHRA SCT005 BKN015
      TEMPO 3012/3014 3SM -SHRA BR BKN005
     FM301600 31007KT P6SM BKN020
     FM302000 31007KT P6SM BKN030
     FM310300 VRB04KT P6SM SCT035
     FM310800 15004KT 3SM BR SCT003=



000
FTUS43 KARX 301040 AAC
TAFLSE
TAF AMD
KLSE 301040Z 3011/3106 VRB04KT P6SM VCSH SCT005 BKN040
      TEMPO 3011/3014 3SM -SHRA BR BKN005
     FM301600 30006KT 4SM BR BKN022
     FM302000 31007KT P6SM BKN035=



000
FTUS43 KARX 301040 AAC
TAFLSE
TAF AMD
KLSE 301040Z 3011/3106 VRB04KT P6SM VCSH SCT005 BKN040
      TEMPO 3011/3014 3SM -SHRA BR BKN005
     FM301600 30006KT 4SM BR BKN022
     FM302000 31007KT P6SM BKN035=



000
FTUS43 KARX 300947 AAC
TAFRST
TAF AMD
KRST 300947Z 3010/3106 26006KT 5SM -SHRA BR OVC004
     FM301100 32005KT 3SM BR OVC008
     FM301500 31006KT 4SM BR OVC015
     FM301700 31006KT P6SM BKN025
     FM301900 31006KT P6SM BKN035=



000
FTUS43 KARX 300947 AAC
TAFRST
TAF AMD
KRST 300947Z 3010/3106 26006KT 5SM -SHRA BR OVC004
     FM301100 32005KT 3SM BR OVC008
     FM301500 31006KT 4SM BR OVC015
     FM301700 31006KT P6SM BKN025
     FM301900 31006KT P6SM BKN035=



000
FTUS43 KARX 300822 AAB
TAFLSE
TAF AMD
KLSE 300822Z 3008/3106 VRB04KT 5SM -SHRA BR BKN005
     FM301200 VRB03KT 3SM BR VCSH BKN005
      TEMPO 3012/3015 1SM BR
     FM301600 30006KT 4SM BR BKN022
     FM302000 31007KT P6SM BKN035=



000
FTUS43 KARX 300822 AAB
TAFLSE
TAF AMD
KLSE 300822Z 3008/3106 VRB04KT 5SM -SHRA BR BKN005
     FM301200 VRB03KT 3SM BR VCSH BKN005
      TEMPO 3012/3015 1SM BR
     FM301600 30006KT 4SM BR BKN022
     FM302000 31007KT P6SM BKN035=



000
FTUS43 KARX 300634 AAA
TAFLSE
TAF AMD
KLSE 300634Z 3007/3106 VRB04KT 5SM BR VCSH SCT005 BKN025
      TEMPO 3007/3010 3SM SHRA SCT005 BKN015
     FM301200 VRB03KT 3SM BR BKN005
      TEMPO 3012/3015 1SM BR
     FM301600 30006KT 4SM BR BKN022
     FM302000 31007KT P6SM BKN035=



000
FTUS43 KARX 300634 AAA
TAFLSE
TAF AMD
KLSE 300634Z 3007/3106 VRB04KT 5SM BR VCSH SCT005 BKN025
      TEMPO 3007/3010 3SM SHRA SCT005 BKN015
     FM301200 VRB03KT 3SM BR BKN005
      TEMPO 3012/3015 1SM BR
     FM301600 30006KT 4SM BR BKN022
     FM302000 31007KT P6SM BKN035=



000
FTUS43 KARX 300627 AAB
TAFRST
TAF AMD
KRST 300627Z 3006/3106 VRB04KT P6SM -SHRA SCT008 BKN012
     FM300900 31005KT 5SM BR VCSH BKN008
     FM301100 32005KT 3SM BR OVC008
     FM301500 31006KT 4SM BR OVC015
     FM301700 31006KT P6SM BKN025
     FM301900 31006KT P6SM BKN035=



000
FTUS43 KARX 300627 AAB
TAFRST
TAF AMD
KRST 300627Z 3006/3106 VRB04KT P6SM -SHRA SCT008 BKN012
     FM300900 31005KT 5SM BR VCSH BKN008
     FM301100 32005KT 3SM BR OVC008
     FM301500 31006KT 4SM BR OVC015
     FM301700 31006KT P6SM BKN025
     FM301900 31006KT P6SM BKN035=



000
FTUS43 KARX 300548 AAA
TAFRST
TAF AMD
KRST 300548Z 3006/3106 VRB04KT P6SM -SHRA SCT012 BKN020
     FM300800 31005KT 5SM BR OVC012
     FM301100 32005KT 3SM BR OVC008
     FM301500 31006KT 4SM BR OVC015
     FM301700 31006KT P6SM BKN025
     FM301900 31006KT P6SM BKN035=



000
FTUS43 KARX 300548 AAA
TAFRST
TAF AMD
KRST 300548Z 3006/3106 VRB04KT P6SM -SHRA SCT012 BKN020
     FM300800 31005KT 5SM BR OVC012
     FM301100 32005KT 3SM BR OVC008
     FM301500 31006KT 4SM BR OVC015
     FM301700 31006KT P6SM BKN025
     FM301900 31006KT P6SM BKN035=



000
FTUS43 KARX 300520
TAFLSE
TAF
KLSE 300520Z 3006/3106 VRB05KT P6SM VCSH SCT040 BKN060
      TEMPO 3006/3008 3SM -SHRA BKN035 OVC050
     FM300800 VRB03KT 3SM BR OVC025
     FM301100 30003KT 1SM BR OVC012
     FM301600 29004KT 4SM BR BKN022
     FM302000 30005KT P6SM BKN035=



000
FTUS43 KARX 300520
TAFRST
TAF
KRST 300520Z 3006/3106 VRB04KT P6SM -RA OVC050
     FM300800 31005KT 5SM BR OVC012
     FM301100 32005KT 3SM BR OVC008
     FM301500 31006KT 4SM BR OVC015
     FM301700 31006KT P6SM BKN025
     FM301900 31006KT P6SM BKN035=



000
FTUS43 KARX 300520
TAFRST
TAF
KRST 300520Z 3006/3106 VRB04KT P6SM -RA OVC050
     FM300800 31005KT 5SM BR OVC012
     FM301100 32005KT 3SM BR OVC008
     FM301500 31006KT 4SM BR OVC015
     FM301700 31006KT P6SM BKN025
     FM301900 31006KT P6SM BKN035=



000
FTUS43 KARX 300520
TAFLSE
TAF
KLSE 300520Z 3006/3106 VRB05KT P6SM VCSH SCT040 BKN060
      TEMPO 3006/3008 3SM -SHRA BKN035 OVC050
     FM300800 VRB03KT 3SM BR OVC025
     FM301100 30003KT 1SM BR OVC012
     FM301600 29004KT 4SM BR BKN022
     FM302000 30005KT P6SM BKN035=



000
FTUS43 KARX 300400 AAB
TAFRST
TAF AMD
KRST 300400Z 3004/3024 VRB04KT P6SM -RA OVC050
     FM300800 29005KT 1SM BR OVC006
     FM301600 31006KT 3SM BR OVC015
     FM301900 31006KT P6SM BKN025=



000
FTUS43 KARX 300400 AAB
TAFRST
TAF AMD
KRST 300400Z 3004/3024 VRB04KT P6SM -RA OVC050
     FM300800 29005KT 1SM BR OVC006
     FM301600 31006KT 3SM BR OVC015
     FM301900 31006KT P6SM BKN025=



000
FTUS43 KARX 300215 AAA
TAFRST
TAF AMD
KRST 300215Z 3002/3024 20006KT 3SM -SHRA BR SCT035 OVC050
     FM300300 24004KT 5SM BR VCSH OVC050
     FM300800 29005KT 1SM BR OVC006
     FM301600 31006KT 3SM BR OVC015
     FM301900 31006KT P6SM BKN025=



000
FTUS43 KARX 300215 AAA
TAFRST
TAF AMD
KRST 300215Z 3002/3024 20006KT 3SM -SHRA BR SCT035 OVC050
     FM300300 24004KT 5SM BR VCSH OVC050
     FM300800 29005KT 1SM BR OVC006
     FM301600 31006KT 3SM BR OVC015
     FM301900 31006KT P6SM BKN025=



000
FTUS43 KARX 300213 AAB
TAFLSE
TAF AMD
KLSE 300213Z 3002/3024 VRB05KT P6SM VCSH SCT040 BKN060
     FM300500 26004KT 3SM BR OVC015
     FM300900 28005KT 1SM BR OVC008
     FM301600 29006KT 4SM BR BKN022
     FM301900 30006KT P6SM BKN030=



000
FTUS43 KARX 300213 AAB
TAFLSE
TAF AMD
KLSE 300213Z 3002/3024 VRB05KT P6SM VCSH SCT040 BKN060
     FM300500 26004KT 3SM BR OVC015
     FM300900 28005KT 1SM BR OVC008
     FM301600 29006KT 4SM BR BKN022
     FM301900 30006KT P6SM BKN030=



000
FTUS43 KARX 300043 CCA
TAFLSE
TAF COR
KLSE 300043Z 3001/3024 20007KT P6SM VCTS SCT030CB BKN060
      TEMPO 3001/3003 5SM -TSRA BKN035CB
     FM300300 VRB05KT 5SM -SHRA SCT015 BKN025
     FM300500 26004KT 3SM BR OVC015
     FM300900 28005KT 1SM BR OVC008
     FM301600 29006KT 4SM BR BKN022
     FM301900 30006KT P6SM BKN030=



000
FTUS43 KARX 300043 CCA
TAFLSE
TAF COR
KLSE 300043Z 3001/3024 20007KT P6SM VCTS SCT030CB BKN060
      TEMPO 3001/3003 5SM -TSRA BKN035CB
     FM300300 VRB05KT 5SM -SHRA SCT015 BKN025
     FM300500 26004KT 3SM BR OVC015
     FM300900 28005KT 1SM BR OVC008
     FM301600 29006KT 4SM BR BKN022
     FM301900 30006KT P6SM BKN030=



000
FTUS43 KARX 300042 AAA
TAFLSE
TAF AMD
KLSE 300042Z 3001/3024 20007KT P6SM SCT030 BKN060
      TEMPO 3001/3003 5SM -TSRA BKN035CB
     FM300300 VRB05KT 5SM -SHRA SCT015 BKN025
     FM300500 26004KT 3SM BR OVC015
     FM300900 28005KT 1SM BR OVC008
     FM301600 29006KT 4SM BR BKN022
     FM301900 30006KT P6SM BKN030=



000
FTUS43 KARX 300042 AAA
TAFLSE
TAF AMD
KLSE 300042Z 3001/3024 20007KT P6SM SCT030 BKN060
      TEMPO 3001/3003 5SM -TSRA BKN035CB
     FM300300 VRB05KT 5SM -SHRA SCT015 BKN025
     FM300500 26004KT 3SM BR OVC015
     FM300900 28005KT 1SM BR OVC008
     FM301600 29006KT 4SM BR BKN022
     FM301900 30006KT P6SM BKN030=



000
FTUS43 KARX 292320
TAFLSE
TAF
KLSE 292320Z 3000/3024 20007KT P6SM VCSH SCT030 BKN060
      TEMPO 3000/3003 28014G22KT 3/4SM +TSRA BR OVC025CB
     FM300300 VRB05KT 5SM SHRA SCT015 BKN025
     FM300500 26004KT 3SM -SHRA BR OVC015
     FM300900 28005KT 1SM BR OVC008
     FM301600 29006KT 4SM BR BKN022
     FM301900 30006KT P6SM BKN030=



000
FTUS43 KARX 292320
TAFRST
TAF
KRST 292320Z 3000/3024 23005KT P6SM SCT015 BKN035
      TEMPO 3000/3003 3/4SM +TSRA BR OVC020CB
     FM300300 26004KT 3SM -SHRA BR OVC012
     FM300800 29005KT 1SM BR OVC006
     FM301600 31006KT 3SM BR OVC015
     FM301900 31006KT P6SM BKN025=



000
FTUS43 KARX 292320
TAFLSE
TAF
KLSE 292320Z 3000/3024 20007KT P6SM VCSH SCT030 BKN060
      TEMPO 3000/3003 28014G22KT 3/4SM +TSRA BR OVC025CB
     FM300300 VRB05KT 5SM SHRA SCT015 BKN025
     FM300500 26004KT 3SM -SHRA BR OVC015
     FM300900 28005KT 1SM BR OVC008
     FM301600 29006KT 4SM BR BKN022
     FM301900 30006KT P6SM BKN030=



000
FTUS43 KARX 292320
TAFRST
TAF
KRST 292320Z 3000/3024 23005KT P6SM SCT015 BKN035
      TEMPO 3000/3003 3/4SM +TSRA BR OVC020CB
     FM300300 26004KT 3SM -SHRA BR OVC012
     FM300800 29005KT 1SM BR OVC006
     FM301600 31006KT 3SM BR OVC015
     FM301900 31006KT P6SM BKN025=



000
FTUS43 KARX 292306 AAB
TAFLSE
TAF AMD
KLSE 292306Z 2923/3018 20007KT P6SM VCSH SCT030 BKN060
      TEMPO 2923/3003 28014G22KT 3/4SM +TSRA BR OVC025CB
     FM300300 VRB05KT 5SM SHRA SCT015 BKN025
      TEMPO 3003/3005 2SM +TSRA BR OVC015CB
     FM300500 26004KT 3SM -SHRA BR OVC015
     FM300900 28005KT 1SM BR OVC008
     FM301600 29006KT 4SM BR BKN022=



000
FTUS43 KARX 292306 AAB
TAFLSE
TAF AMD
KLSE 292306Z 2923/3018 20007KT P6SM VCSH SCT030 BKN060
      TEMPO 2923/3003 28014G22KT 3/4SM +TSRA BR OVC025CB
     FM300300 VRB05KT 5SM SHRA SCT015 BKN025
      TEMPO 3003/3005 2SM +TSRA BR OVC015CB
     FM300500 26004KT 3SM -SHRA BR OVC015
     FM300900 28005KT 1SM BR OVC008
     FM301600 29006KT 4SM BR BKN022=



000
FTUS43 KARX 292302 AAC
TAFRST
TAF AMD
KRST 292302Z 2923/3018 23005KT P6SM SCT015 BKN035
      TEMPO 2923/3003 3/4SM +TSRA BR OVC020CB
     FM300300 26004KT 3SM -SHRA BR OVC012
     FM300800 29005KT 1SM BR OVC006
     FM301600 31006KT 3SM BR OVC015=



000
FTUS43 KARX 292302 AAC
TAFRST
TAF AMD
KRST 292302Z 2923/3018 23005KT P6SM SCT015 BKN035
      TEMPO 2923/3003 3/4SM +TSRA BR OVC020CB
     FM300300 26004KT 3SM -SHRA BR OVC012
     FM300800 29005KT 1SM BR OVC006
     FM301600 31006KT 3SM BR OVC015=



000
FTUS43 KARX 292233 AAA
TAFLSE
TAF AMD
KLSE 292233Z 2923/3018 18012G18KT P6SM SCT020 SCT150
     FM292300 20007KT P6SM VCSH SCT030 BKN060
      TEMPO 2923/3001 28014G22KT
     FM300100 VRB05KT 5SM SHRA SCT015 BKN025
      TEMPO 3001/3005 2SM +TSRA BR OVC015CB
     FM300500 26004KT 3SM -SHRA BR OVC015
     FM300900 28005KT 1SM BR OVC008
     FM301600 29006KT 4SM BR BKN022=



000
FTUS43 KARX 292233 AAA
TAFLSE
TAF AMD
KLSE 292233Z 2923/3018 18012G18KT P6SM SCT020 SCT150
     FM292300 20007KT P6SM VCSH SCT030 BKN060
      TEMPO 2923/3001 28014G22KT
     FM300100 VRB05KT 5SM SHRA SCT015 BKN025
      TEMPO 3001/3005 2SM +TSRA BR OVC015CB
     FM300500 26004KT 3SM -SHRA BR OVC015
     FM300900 28005KT 1SM BR OVC008
     FM301600 29006KT 4SM BR BKN022=



000
FTUS43 KARX 292102 AAB
TAFRST
TAF AMD
KRST 292102Z 2921/3018 20010G15KT P6SM VCTS SCT025CB BKN070
     FM292300 VRB05KT 4SM SHRA SCT015 BKN025
      TEMPO 2923/3003 3/4SM +TSRA BR OVC012CB
     FM300300 26004KT 3SM -SHRA BR OVC012
     FM300800 29005KT 1SM BR OVC006
     FM301600 31006KT 3SM BR OVC015=



000
FTUS43 KARX 292102 AAB
TAFRST
TAF AMD
KRST 292102Z 2921/3018 20010G15KT P6SM VCTS SCT025CB BKN070
     FM292300 VRB05KT 4SM SHRA SCT015 BKN025
      TEMPO 2923/3003 3/4SM +TSRA BR OVC012CB
     FM300300 26004KT 3SM -SHRA BR OVC012
     FM300800 29005KT 1SM BR OVC006
     FM301600 31006KT 3SM BR OVC015=



000
FTUS43 KARX 291937 AAA
TAFRST
TAF AMD
KRST 291937Z 2920/3018 20010G15KT P6SM VCTS SCT025 BKN050CB
      TEMPO 2920/2921 4SM TSRA BKN025CB
     FM292300 VRB05KT 4SM SHRA SCT015 BKN025
      TEMPO 2923/3003 2SM +TSRA BR OVC012CB
     FM300300 26004KT 3SM -SHRA BR OVC012
     FM300800 29005KT 1SM BR OVC006
     FM301600 31006KT 3SM BR OVC015=



000
FTUS43 KARX 291937 AAA
TAFRST
TAF AMD
KRST 291937Z 2920/3018 20010G15KT P6SM VCTS SCT025 BKN050CB
      TEMPO 2920/2921 4SM TSRA BKN025CB
     FM292300 VRB05KT 4SM SHRA SCT015 BKN025
      TEMPO 2923/3003 2SM +TSRA BR OVC012CB
     FM300300 26004KT 3SM -SHRA BR OVC012
     FM300800 29005KT 1SM BR OVC006
     FM301600 31006KT 3SM BR OVC015=



000
FTUS43 KARX 291741
TAFLSE
TAF
KLSE 291741Z 2918/3018 18012G18KT P6SM SCT020 SCT150
     FM292300 20007KT P6SM VCSH SCT030 BKN060
     FM300100 VRB05KT 5SM SHRA SCT015 BKN025
      TEMPO 3001/3005 2SM +TSRA BR OVC015CB
     FM300500 26004KT 3SM -SHRA BR OVC015
     FM300900 28005KT 1SM BR OVC008
     FM301600 29006KT 4SM BR BKN022=



000
FTUS43 KARX 291741
TAFRST
TAF
KRST 291741Z 2918/3018 20010G15KT P6SM SCT020 BKN250
     FM292100 22008KT P6SM VCSH SCT025 BKN050
     FM292300 VRB05KT 4SM SHRA SCT015 BKN025
      TEMPO 2923/3003 2SM +TSRA BR OVC012CB
     FM300300 26004KT 3SM -SHRA BR OVC012
     FM300800 29005KT 1SM BR OVC006
     FM301600 31006KT 3SM BR OVC015=



000
FTUS43 KARX 291741
TAFLSE
TAF
KLSE 291741Z 2918/3018 18012G18KT P6SM SCT020 SCT150
     FM292300 20007KT P6SM VCSH SCT030 BKN060
     FM300100 VRB05KT 5SM SHRA SCT015 BKN025
      TEMPO 3001/3005 2SM +TSRA BR OVC015CB
     FM300500 26004KT 3SM -SHRA BR OVC015
     FM300900 28005KT 1SM BR OVC008
     FM301600 29006KT 4SM BR BKN022=



000
FTUS43 KARX 291741
TAFRST
TAF
KRST 291741Z 2918/3018 20010G15KT P6SM SCT020 BKN250
     FM292100 22008KT P6SM VCSH SCT025 BKN050
     FM292300 VRB05KT 4SM SHRA SCT015 BKN025
      TEMPO 2923/3003 2SM +TSRA BR OVC012CB
     FM300300 26004KT 3SM -SHRA BR OVC012
     FM300800 29005KT 1SM BR OVC006
     FM301600 31006KT 3SM BR OVC015=



000
FTUS43 KARX 291520 AAA
TAFRST
TAF AMD
KRST 291520Z 2915/3012 18010KT P6SM SCT025 BKN150
     FM291800 20010KT P6SM BKN070
     FM292100 22008KT P6SM VCSH BKN030
     FM292300 VRB05KT 3SM TSRA BR SCT015 OVC050CB
     FM300100 25006KT 3SM TSRA BR OVC014CB
     FM300400 23006KT 3SM -SHRA BR OVC008
     FM300800 21003KT 1/2SM FG OVC002=



000
FTUS43 KARX 291512 AAA
TAFLSE
TAF AMD
KLSE 291512Z 2915/3012 18010KT P6SM OVC012
     FM291800 18010KT P6SM SCT020 SCT150
     FM292100 19012KT P6SM BKN050
     FM292300 19012KT 4SM -TSRA BR BKN030CB
     FM300100 20008KT 6SM -SHRA BR BKN025
      TEMPO 3001/3003 2SM -TSRA BR BKN014CB
     FM300400 25004KT 5SM -SHRA BR OVC008
     FM300900 17003KT 2SM BR BCFG OVC004=



000
FTUS43 KARX 291512 AAA
TAFLSE
TAF AMD
KLSE 291512Z 2915/3012 18010KT P6SM OVC012
     FM291800 18010KT P6SM SCT020 SCT150
     FM292100 19012KT P6SM BKN050
     FM292300 19012KT 4SM -TSRA BR BKN030CB
     FM300100 20008KT 6SM -SHRA BR BKN025
      TEMPO 3001/3003 2SM -TSRA BR BKN014CB
     FM300400 25004KT 5SM -SHRA BR OVC008
     FM300900 17003KT 2SM BR BCFG OVC004=



000
FTUS43 KARX 291138
TAFLSE
TAF
KLSE 291138Z 2912/3012 13005KT P6SM -SHRA OVC008
     FM291500 17010KT P6SM SCT012 BKN100
     FM291800 18010KT P6SM SKC
     FM292000 19012KT P6SM BKN040
     FM292300 19012KT 4SM -TSRA BR BKN030CB
     FM300100 20008KT 6SM -SHRA BR BKN025
      TEMPO 3001/3003 2SM -TSRA BR BKN014CB
     FM300400 25004KT 5SM -SHRA BR OVC008
     FM300900 17003KT 2SM BR BCFG OVC004=



000
FTUS43 KARX 291138
TAFRST
TAF
KRST 291138Z 2912/3012 16008KT 6SM -SHRA SCT006 BKN100
      TEMPO 2912/2914 4SM -SHRA BR BKN006
     FM291400 18010KT P6SM SCT050 BKN120
     FM291800 20010KT P6SM BKN070
      TEMPO 2920/2923 3SM TSRA BKN028CB
     FM292300 VRB05KT 5SM -SHRA BR SCT015 OVC050
     FM300100 25006KT 5SM -TSRA BR OVC014CB
     FM300400 23006KT 3SM -SHRA BR OVC008
     FM300800 21003KT 1/2SM FG OVC002=



000
FTUS43 KARX 291138
TAFLSE
TAF
KLSE 291138Z 2912/3012 13005KT P6SM -SHRA OVC008
     FM291500 17010KT P6SM SCT012 BKN100
     FM291800 18010KT P6SM SKC
     FM292000 19012KT P6SM BKN040
     FM292300 19012KT 4SM -TSRA BR BKN030CB
     FM300100 20008KT 6SM -SHRA BR BKN025
      TEMPO 3001/3003 2SM -TSRA BR BKN014CB
     FM300400 25004KT 5SM -SHRA BR OVC008
     FM300900 17003KT 2SM BR BCFG OVC004=



000
FTUS43 KARX 291138
TAFRST
TAF
KRST 291138Z 2912/3012 16008KT 6SM -SHRA SCT006 BKN100
      TEMPO 2912/2914 4SM -SHRA BR BKN006
     FM291400 18010KT P6SM SCT050 BKN120
     FM291800 20010KT P6SM BKN070
      TEMPO 2920/2923 3SM TSRA BKN028CB
     FM292300 VRB05KT 5SM -SHRA BR SCT015 OVC050
     FM300100 25006KT 5SM -TSRA BR OVC014CB
     FM300400 23006KT 3SM -SHRA BR OVC008
     FM300800 21003KT 1/2SM FG OVC002=



000
FTUS43 KARX 290815 AAB
TAFRST
TAF AMD
KRST 290815Z 2908/3006 16008KT 4SM -SHRA BR SCT006 BKN050
      TEMPO 2908/2912 2SM SHRA BR BKN004
     FM291400 18010KT P6SM SCT050 BKN130
     FM291800 20010KT P6SM BKN070
      TEMPO 2920/2924 3SM TSRA BKN020CB
     FM300100 22005KT 6SM -SHRA BKN015=



000
FTUS43 KARX 290815 AAB
TAFRST
TAF AMD
KRST 290815Z 2908/3006 16008KT 4SM -SHRA BR SCT006 BKN050
      TEMPO 2908/2912 2SM SHRA BR BKN004
     FM291400 18010KT P6SM SCT050 BKN130
     FM291800 20010KT P6SM BKN070
      TEMPO 2920/2924 3SM TSRA BKN020CB
     FM300100 22005KT 6SM -SHRA BKN015=



000
FTUS43 KARX 290633 AAA
TAFRST
TAF AMD
KRST 290633Z 2907/3006 16008KT 1 1/2SM -TSRA BR OVC002CB
     FM290700 16008KT 1 1/2SM -SHRA BR OVC002
     FM291200 18010KT P6SM OVC006
     FM291700 20010KT P6SM BKN015
      TEMPO 2920/2924 3SM TSRA BKN020CB
     FM300100 22005KT 6SM -SHRA BKN015=



000
FTUS43 KARX 290633 AAA
TAFRST
TAF AMD
KRST 290633Z 2907/3006 16008KT 1 1/2SM -TSRA BR OVC002CB
     FM290700 16008KT 1 1/2SM -SHRA BR OVC002
     FM291200 18010KT P6SM OVC006
     FM291700 20010KT P6SM BKN015
      TEMPO 2920/2924 3SM TSRA BKN020CB
     FM300100 22005KT 6SM -SHRA BKN015=



000
FTUS43 KARX 290520
TAFLSE
TAF
KLSE 290520Z 2906/3006 13005KT P6SM VCSH OVC025
     FM290900 15006KT 5SM -SHRA BR OVC007
     FM291400 17008KT P6SM OVC009
     FM291600 18010KT P6SM BKN012
     FM291800 18010KT P6SM BKN025
      TEMPO 2920/2924 3SM TSRA BKN030CB
     FM300100 18004KT 6SM -SHRA BKN025=



000
FTUS43 KARX 290520
TAFRST
TAF
KRST 290520Z 2906/3006 14008KT 1SM BR VCSH OVC003
     FM290800 16008KT 2SM -SHRA BR OVC003
     FM291200 18010KT P6SM OVC006
     FM291700 20010KT P6SM BKN015
      TEMPO 2920/2924 3SM TSRA BKN020CB
     FM300100 22005KT 6SM -SHRA BKN015=



000
FTUS43 KARX 290520
TAFRST
TAF
KRST 290520Z 2906/3006 14008KT 1SM BR VCSH OVC003
     FM290800 16008KT 2SM -SHRA BR OVC003
     FM291200 18010KT P6SM OVC006
     FM291700 20010KT P6SM BKN015
      TEMPO 2920/2924 3SM TSRA BKN020CB
     FM300100 22005KT 6SM -SHRA BKN015=



000
FTUS43 KARX 290520
TAFLSE
TAF
KLSE 290520Z 2906/3006 13005KT P6SM VCSH OVC025
     FM290900 15006KT 5SM -SHRA BR OVC007
     FM291400 17008KT P6SM OVC009
     FM291600 18010KT P6SM BKN012
     FM291800 18010KT P6SM BKN025
      TEMPO 2920/2924 3SM TSRA BKN030CB
     FM300100 18004KT 6SM -SHRA BKN025=



000
FTUS43 KARX 290341 AAB
TAFRST
TAF AMD
KRST 290341Z 2904/2924 14008KT 3SM BR VCSH OVC005
     FM290800 16008KT 2SM -SHRA BR OVC004
     FM291400 18010KT P6SM OVC007
     FM291700 20010KT P6SM BKN015
      TEMPO 2920/2924 3SM TSRA BKN020CB=



000
FTUS43 KARX 290338 AAB
TAFLSE
TAF AMD
KLSE 290338Z 2904/2924 13005KT P6SM VCSH OVC025
     FM290900 15006KT 5SM -SHRA BR OVC007
     FM291400 17008KT P6SM OVC009
     FM291600 18010KT P6SM BKN012
     FM291800 18010KT P6SM BKN025
      TEMPO 2920/2924 3SM TSRA BKN030CB=



000
FTUS43 KARX 290338 AAB
TAFLSE
TAF AMD
KLSE 290338Z 2904/2924 13005KT P6SM VCSH OVC025
     FM290900 15006KT 5SM -SHRA BR OVC007
     FM291400 17008KT P6SM OVC009
     FM291600 18010KT P6SM BKN012
     FM291800 18010KT P6SM BKN025
      TEMPO 2920/2924 3SM TSRA BKN030CB=



000
FTUS43 KARX 290215 AAA
TAFLSE
TAF AMD
KLSE 290215Z 2902/2924 13005KT P6SM BKN015 OVC025
     FM290700 14006KT 5SM BR VCSH OVC007
     FM291400 17008KT P6SM OVC009
     FM291600 18010KT P6SM BKN012
     FM291800 18010KT P6SM BKN025
      TEMPO 2920/2924 3SM TSRA BKN030CB=



000
FTUS43 KARX 290215 AAA
TAFLSE
TAF AMD
KLSE 290215Z 2902/2924 13005KT P6SM BKN015 OVC025
     FM290700 14006KT 5SM BR VCSH OVC007
     FM291400 17008KT P6SM OVC009
     FM291600 18010KT P6SM BKN012
     FM291800 18010KT P6SM BKN025
      TEMPO 2920/2924 3SM TSRA BKN030CB=



000
FTUS43 KARX 290113 AAA
TAFRST
TAF AMD
KRST 290113Z 2901/2924 13008KT 5SM -RA BR OVC005
     FM290600 15008KT 5SM BR VCSH OVC005
     FM291400 18010KT P6SM OVC007
     FM291700 20010KT P6SM BKN015
      TEMPO 2920/2924 3SM TSRA BKN020CB=



000
FTUS43 KARX 290113 AAA
TAFRST
TAF AMD
KRST 290113Z 2901/2924 13008KT 5SM -RA BR OVC005
     FM290600 15008KT 5SM BR VCSH OVC005
     FM291400 18010KT P6SM OVC007
     FM291700 20010KT P6SM BKN015
      TEMPO 2920/2924 3SM TSRA BKN020CB=



000
FTUS43 KARX 282330
TAFRST
TAF
KRST 282330Z 2900/2924 12010KT 3SM RA BR BKN005 OVC015
      TEMPO 2900/2901 2SM +RA BR OVC004
     FM290100 13008KT 5SM -SHRA BR OVC010
     FM290600 15008KT 5SM BR VCSH OVC005
     FM291400 18010KT P6SM OVC007
     FM291700 20010KT P6SM BKN015
      TEMPO 2920/2924 3SM TSRA BKN020CB=



000
FTUS43 KARX 282330
TAFLSE
TAF
KLSE 282330Z 2900/2924 13006KT 3SM RA BR SCT015 OVC030
      TEMPO 2900/2902 2SM +RA BR OVC020
     FM290200 13005KT 5SM -SHRA BR OVC012
     FM290700 14006KT 5SM BR VCSH OVC007
     FM291400 17008KT P6SM OVC009
     FM291600 18010KT P6SM BKN012
     FM291800 18010KT P6SM BKN025
      TEMPO 2920/2924 3SM TSRA BKN030CB=



000
FTUS43 KARX 282330
TAFRST
TAF
KRST 282330Z 2900/2924 12010KT 3SM RA BR BKN005 OVC015
      TEMPO 2900/2901 2SM +RA BR OVC004
     FM290100 13008KT 5SM -SHRA BR OVC010
     FM290600 15008KT 5SM BR VCSH OVC005
     FM291400 18010KT P6SM OVC007
     FM291700 20010KT P6SM BKN015
      TEMPO 2920/2924 3SM TSRA BKN020CB=



000
FTUS43 KARX 282330
TAFLSE
TAF
KLSE 282330Z 2900/2924 13006KT 3SM RA BR SCT015 OVC030
      TEMPO 2900/2902 2SM +RA BR OVC020
     FM290200 13005KT 5SM -SHRA BR OVC012
     FM290700 14006KT 5SM BR VCSH OVC007
     FM291400 17008KT P6SM OVC009
     FM291600 18010KT P6SM BKN012
     FM291800 18010KT P6SM BKN025
      TEMPO 2920/2924 3SM TSRA BKN030CB=



000
FTUS43 KARX 282151 AAC
TAFRST
TAF AMD
KRST 282151Z 2822/2918 12010KT 3SM RA BR OVC008
      TEMPO 2822/2824 1SM +RA BR BKN005
     FM290000 14008KT 5SM -SHRA BR BKN006
     FM290400 16010KT 4SM -SHRA BR OVC004
     FM291400 20010KT 5SM -SHRA BR OVC006=



000
FTUS43 KARX 282151 AAC
TAFRST
TAF AMD
KRST 282151Z 2822/2918 12010KT 3SM RA BR OVC008
      TEMPO 2822/2824 1SM +RA BR BKN005
     FM290000 14008KT 5SM -SHRA BR BKN006
     FM290400 16010KT 4SM -SHRA BR OVC004
     FM291400 20010KT 5SM -SHRA BR OVC006=



000
FTUS43 KARX 282104 AAB
TAFRST
TAF AMD
KRST 282104Z 2821/2918 13010KT 6SM -RA BR VCTS BKN008CB
      TEMPO 2821/2824 1 1/2SM SHRA BR BKN005
     FM290000 14008KT 5SM -SHRA BR BKN006
     FM290400 16010KT 4SM -SHRA BR OVC004
     FM291400 20010KT 5SM -SHRA BR OVC006=



000
FTUS43 KARX 282104 AAB
TAFRST
TAF AMD
KRST 282104Z 2821/2918 13010KT 6SM -RA BR VCTS BKN008CB
      TEMPO 2821/2824 1 1/2SM SHRA BR BKN005
     FM290000 14008KT 5SM -SHRA BR BKN006
     FM290400 16010KT 4SM -SHRA BR OVC004
     FM291400 20010KT 5SM -SHRA BR OVC006=



000
FTUS43 KARX 281838 AAA
TAFRST
TAF AMD
KRST 281838Z 2819/2918 14010KT 4SM -RA BR BKN008
      TEMPO 2819/2821 6SM -RA SCT008 BKN012
     FM282100 13009KT 6SM -RA BR VCTS BKN012CB
      TEMPO 2821/2824 3SM -SHRA BR BKN008
     FM290000 14008KT 5SM -SHRA BR BKN006
     FM290400 16010KT 4SM -SHRA BR OVC004
     FM291400 20010KT 5SM -SHRA BR OVC006=



000
FTUS43 KARX 281838 AAA
TAFRST
TAF AMD
KRST 281838Z 2819/2918 14010KT 4SM -RA BR BKN008
      TEMPO 2819/2821 6SM -RA SCT008 BKN012
     FM282100 13009KT 6SM -RA BR VCTS BKN012CB
      TEMPO 2821/2824 3SM -SHRA BR BKN008
     FM290000 14008KT 5SM -SHRA BR BKN006
     FM290400 16010KT 4SM -SHRA BR OVC004
     FM291400 20010KT 5SM -SHRA BR OVC006=



000
FTUS43 KARX 281720
TAFRST
TAF
KRST 281720Z 2818/2918 14010KT 6SM -RA SCT014 BKN040
      TEMPO 2818/2820 4SM -RA BR BKN014
     FM282000 13009KT 6SM -RA BR VCTS SCT012 BKN030CB
      TEMPO 2821/2824 3SM -SHRA BR BKN010
     FM290000 14008KT 5SM -SHRA BR BKN008
     FM290400 16010KT 4SM -SHRA BR OVC004
     FM291400 20010KT 5SM -SHRA BR OVC006=



000
FTUS43 KARX 281720
TAFLSE
TAF
KLSE 281720Z 2818/2918 15007KT P6SM VCSH SCT025 BKN040
      TEMPO 2819/2821 6SM -RA BKN022
     FM282100 12007KT 6SM -RA SCT025 BKN035
      TEMPO 2821/2824 3SM -SHRA BR BKN020
     FM290000 13006KT 6SM -SHRA BR SCT009 BKN025
     FM290700 14007KT 5SM -SHRA BR OVC007
     FM291400 17008KT 6SM -SHRA OVC009=



000
FTUS43 KARX 281720
TAFRST
TAF
KRST 281720Z 2818/2918 14010KT 6SM -RA SCT014 BKN040
      TEMPO 2818/2820 4SM -RA BR BKN014
     FM282000 13009KT 6SM -RA BR VCTS SCT012 BKN030CB
      TEMPO 2821/2824 3SM -SHRA BR BKN010
     FM290000 14008KT 5SM -SHRA BR BKN008
     FM290400 16010KT 4SM -SHRA BR OVC004
     FM291400 20010KT 5SM -SHRA BR OVC006=



000
FTUS43 KARX 281720
TAFLSE
TAF
KLSE 281720Z 2818/2918 15007KT P6SM VCSH SCT025 BKN040
      TEMPO 2819/2821 6SM -RA BKN022
     FM282100 12007KT 6SM -RA SCT025 BKN035
      TEMPO 2821/2824 3SM -SHRA BR BKN020
     FM290000 13006KT 6SM -SHRA BR SCT009 BKN025
     FM290700 14007KT 5SM -SHRA BR OVC007
     FM291400 17008KT 6SM -SHRA OVC009=



000
FTUS43 KARX 281434 AAA
TAFRST
TAF AMD
KRST 281434Z 2815/2912 14008KT P6SM VCSH BKN080
     FM281530 14009KT 6SM -RA SCT014 BKN040
      TEMPO 2817/2819 3SM -RA BR BKN012
     FM281900 14012KT 3SM -RA BR BKN030
      TEMPO 2820/2823 1SM -TSRA BR BKN006CB
     FM290000 15010KT 6SM -SHRA BR SCT008 BKN025
     FM290400 18010KT 4SM BR OVC004=



000
FTUS43 KARX 281434 AAA
TAFRST
TAF AMD
KRST 281434Z 2815/2912 14008KT P6SM VCSH BKN080
     FM281530 14009KT 6SM -RA SCT014 BKN040
      TEMPO 2817/2819 3SM -RA BR BKN012
     FM281900 14012KT 3SM -RA BR BKN030
      TEMPO 2820/2823 1SM -TSRA BR BKN006CB
     FM290000 15010KT 6SM -SHRA BR SCT008 BKN025
     FM290400 18010KT 4SM BR OVC004=



000
FTUS43 KARX 281122
TAFRST
TAF
KRST 281122Z 2812/2912 11005KT P6SM BKN090
     FM281500 14009KT 6SM -SHRA BR SCT014 OVC040
      TEMPO 2815/2818 3SM -RA BR OVC010
     FM281800 14012KT 3SM -RA BR BKN030
      TEMPO 2819/2822 1SM -TSRA BR BKN006CB
     FM290000 15010KT 6SM -SHRA BR SCT008 BKN025
     FM290400 18010KT 4SM BR OVC004=



000
FTUS43 KARX 281122
TAFLSE
TAF
KLSE 281122Z 2812/2912 13004KT P6SM BKN100
     FM281800 15008KT 6SM -SHRA BR SCT020 BKN040
      TEMPO 2818/2820 4SM -SHRA BR BKN014
     FM282000 14009KT 5SM -SHRA BR BKN035
      TEMPO 2820/2824 2SM -TSRA BR BKN010CB
     FM290000 13009KT 6SM -SHRA BR SCT009 BKN030
     FM290700 16007KT 5SM BR OVC008=



000
FTUS43 KARX 281122
TAFLSE
TAF
KLSE 281122Z 2812/2912 13004KT P6SM BKN100
     FM281800 15008KT 6SM -SHRA BR SCT020 BKN040
      TEMPO 2818/2820 4SM -SHRA BR BKN014
     FM282000 14009KT 5SM -SHRA BR BKN035
      TEMPO 2820/2824 2SM -TSRA BR BKN010CB
     FM290000 13009KT 6SM -SHRA BR SCT009 BKN030
     FM290700 16007KT 5SM BR OVC008=



000
FTUS43 KARX 281122
TAFRST
TAF
KRST 281122Z 2812/2912 11005KT P6SM BKN090
     FM281500 14009KT 6SM -SHRA BR SCT014 OVC040
      TEMPO 2815/2818 3SM -RA BR OVC010
     FM281800 14012KT 3SM -RA BR BKN030
      TEMPO 2819/2822 1SM -TSRA BR BKN006CB
     FM290000 15010KT 6SM -SHRA BR SCT008 BKN025
     FM290400 18010KT 4SM BR OVC004=



000
FTUS43 KARX 280520
TAFRST
TAF
KRST 280520Z 2806/2906 VRB04KT P6SM SCT150
     FM280700 13005KT P6SM BKN070
     FM281500 13008KT 4SM -SHRA BR OVC045
      TEMPO 2817/2821 2SM TSRA BR BKN020CB
     FM282100 14009KT 3SM -SHRA BR BKN030
      TEMPO 2821/2823 1SM TSRA BR BKN015CB
     FM290100 13006KT 6SM -SHRA BKN025=



000
FTUS43 KARX 280520
TAFLSE
TAF
KLSE 280520Z 2806/2906 VRB04KT P6SM SKC
     FM280800 12004KT P6SM BKN080
     FM281700 14007KT 4SM -SHRA BR BKN040
      TEMPO 2820/2824 2SM TSRA BR BKN025CB
     FM290200 13005KT 6SM -SHRA BR BKN030=



000
FTUS43 KARX 280520
TAFLSE
TAF
KLSE 280520Z 2806/2906 VRB04KT P6SM SKC
     FM280800 12004KT P6SM BKN080
     FM281700 14007KT 4SM -SHRA BR BKN040
      TEMPO 2820/2824 2SM TSRA BR BKN025CB
     FM290200 13005KT 6SM -SHRA BR BKN030=



000
FTUS43 KARX 280520
TAFRST
TAF
KRST 280520Z 2806/2906 VRB04KT P6SM SCT150
     FM280700 13005KT P6SM BKN070
     FM281500 13008KT 4SM -SHRA BR OVC045
      TEMPO 2817/2821 2SM TSRA BR BKN020CB
     FM282100 14009KT 3SM -SHRA BR BKN030
      TEMPO 2821/2823 1SM TSRA BR BKN015CB
     FM290100 13006KT 6SM -SHRA BKN025=



000
FTUS43 KARX 272325
TAFLSE
TAF
KLSE 272325Z 2800/2824 VRB04KT P6SM SCT150
     FM280900 12005KT P6SM BKN080
     FM281600 14007KT 6SM -SHRA BKN050
      TEMPO 2818/2822 2SM TSRA BR BKN030CB
     FM282200 14008KT 3SM -SHRA BR BKN035
      TEMPO 2822/2824 1SM TSRA BR BKN020CB=



000
FTUS43 KARX 272325
TAFRST
TAF
KRST 272325Z 2800/2824 VRB04KT P6SM SCT150
     FM280700 12006KT P6SM BKN070
     FM281400 14006KT 5SM -SHRA BR OVC045
      TEMPO 2816/2820 2SM TSRA BR BKN025CB
     FM282000 14009KT 3SM -SHRA BR BKN030
      TEMPO 2820/2824 1SM TSRA BR BKN015CB=



000
FTUS43 KARX 272325
TAFRST
TAF
KRST 272325Z 2800/2824 VRB04KT P6SM SCT150
     FM280700 12006KT P6SM BKN070
     FM281400 14006KT 5SM -SHRA BR OVC045
      TEMPO 2816/2820 2SM TSRA BR BKN025CB
     FM282000 14009KT 3SM -SHRA BR BKN030
      TEMPO 2820/2824 1SM TSRA BR BKN015CB=



000
FTUS43 KARX 272325
TAFLSE
TAF
KLSE 272325Z 2800/2824 VRB04KT P6SM SCT150
     FM280900 12005KT P6SM BKN080
     FM281600 14007KT 6SM -SHRA BKN050
      TEMPO 2818/2822 2SM TSRA BR BKN030CB
     FM282200 14008KT 3SM -SHRA BR BKN035
      TEMPO 2822/2824 1SM TSRA BR BKN020CB=



    US Dept of Commerce
    National Oceanic and Atmospheric Administration
    National Weather Service
    1325 East West Highway
    Silver Spring, MD 20910
    Page Author: NWS Internet Services Team
Disclaimer
Information Quality
Credits
Glossary
Privacy Policy
Freedom of Information Act (FOIA)
About Us
Career Opportunities